Tamrey S — TCA4286 — position and weather

sailwx.info

Track history (hours):
 
Tides and Currents Weather Stations Pressure Air Temp Water Temp Dewpoint Dewpoint Depression Visibility Wind Speed Wind Dir Waves Ship Positions

Tamrey S

Last reported at 2017-Nov-14 17:17 UTC. Time now 2017-Nov-22 12:55 UTC.
Position N 46°17' E 030°54'.

Length 176 m; draft 10.6 m.

Type: Cargo ship. MMSI: 271044600.

Date/timePositionNaut miles runAvg speedWind from/ knotsBaromVisibWave heightAir tempDewpointWater temp
2017-Nov-14 17:17N 46°17' E 030°54'311.0
2017-Nov-14 17:00N 46°19' E 030°55'711.0
2017-Nov-14 16:23N 46°26' E 030°55'510.6
2017-Nov-14 15:56N 46°31' E 030°55'5 7.9
2017-Nov-14 15:21N 46°34' E 031°00'93 2.4
2017-Nov-13 00:30N 45°02' E 030°41'712.0
2017-Nov-12 23:54N 44°55' E 030°38'711.8
2017-Nov-12 23:17N 44°48' E 030°34'712.2
2017-Nov-12 22:45N 44°42' E 030°31'312.2
2017-Nov-12 22:30N 44°39' E 030°30'7012.1
2017-Nov-12 16:44N 43°31' E 030°05'  
Track history (hours):
 
Tides and Currents Weather Stations Pressure Air Temp Water Temp Dewpoint Dewpoint Depression Visibility Wind Speed Wind Dir Waves Ship Positions

Tamrey S

Last reported at 2017-Nov-14 17:17 UTC. Time now 2017-Nov-22 12:55 UTC.
Position N 46°17' E 030°54'.

Length 176 m; draft 10.6 m.

Type: Cargo ship. MMSI: 271044600.

Date/timePositionNaut miles runAvg speedWind from/ knotsBaromVisibWave heightAir tempDewpointWater temp
2017-Nov-14 17:17N 46°17' E 030°54'311.0
2017-Nov-14 17:00N 46°19' E 030°55'711.0
2017-Nov-14 16:23N 46°26' E 030°55'510.6
2017-Nov-14 15:56N 46°31' E 030°55'5 7.9
2017-Nov-14 15:21N 46°34' E 031°00'93 2.4
2017-Nov-13 00:30N 45°02' E 030°41'712.0
2017-Nov-12 23:54N 44°55' E 030°38'711.8
2017-Nov-12 23:17N 44°48' E 030°34'712.2
2017-Nov-12 22:45N 44°42' E 030°31'312.2
2017-Nov-12 22:30N 44°39' E 030°30'7012.1
2017-Nov-12 16:44N 43°31' E 030°05'  

Dump ship's entire track history